Time;durP1;ratioP1;P1;durP2;ratioP2;P2;SDS_P1;SDS_P2;PMS_P1;PMS_P2;Temp;Humidity;BMP_temperature;BMP_pressure;BME280_temperature;BME280_humidity;BME280_pressure;Samples;Min_cycle;Max_cycle;Signal;HPM_P1;HPM_P2
2023/09/15 00:01:36;;;;;;;5.13;3.60;;;;;;;18.76;62.60;99457.47;5150770;27;20043;-81
2023/09/15 00:04:06;;;;;;;4.70;3.17;;;;;;;19.54;62.11;99583.09;5150532;28;20037;-81
2023/09/15 00:06:35;;;;;;;5.70;3.60;;;;;;;19.52;62.10;99577.84;5149887;28;20362;-81
2023/09/15 00:09:01;;;;;;;6.65;3.42;;;;;;;19.54;62.33;99581.25;5151277;28;20108;-80
2023/09/15 00:11:39;;;;;;;3.33;2.90;;;;;;;19.50;62.22;99578.97;5150908;28;20069;-80
2023/09/15 00:14:10;;;;;;;4.63;3.25;;;;;;;19.48;62.55;99576.44;5152117;28;20114;-80
2023/09/15 00:16:38;;;;;;;4.15;2.90;;;;;;;19.50;62.75;99578.97;5151099;27;20043;-81
2023/09/15 00:19:08;;;;;;;4.22;3.15;;;;;;;19.49;62.49;99575.44;5151216;27;20065;-80
2023/09/15 00:21:34;;;;;;;4.05;3.28;;;;;;;19.42;61.36;99587.72;5150553;28;20039;-80
2023/09/15 00:24:05;;;;;;;4.07;3.08;;;;;;;18.99;62.49;99501.09;5151664;28;20237;-80
2023/09/15 00:26:32;;;;;;;5.38;3.30;;;;;;;19.46;62.52;99582.94;5151836;28;20043;-80
2023/09/15 00:28:59;;;;;;;4.57;3.38;;;;;;;19.46;62.29;99577.56;5151458;28;20300;-80
2023/09/15 00:31:27;;;;;;;4.43;3.20;;;;;;;19.06;62.54;99513.00;5151711;28;20035;-80
2023/09/15 00:33:55;;;;;;;4.97;3.67;;;;;;;19.36;61.80;99577.47;5152913;27;20071;-80
2023/09/15 00:36:21;;;;;;;4.85;3.15;;;;;;;18.58;62.42;99458.09;5155874;27;20043;-81
2023/09/15 00:38:48;;;;;;;4.00;3.28;;;;;;;19.40;62.23;99578.94;5154271;27;20079;-80
2023/09/15 00:41:15;;;;;;;4.40;3.53;;;;;;;19.38;62.20;99585.41;5155726;27;20051;-80
2023/09/15 00:43:42;;;;;;;4.28;3.35;;;;;;;19.38;62.10;99583.56;5154179;27;20039;-79
2023/09/15 00:46:10;;;;;;;3.78;3.33;;;;;;;19.36;62.43;99579.31;5153630;27;20043;-80
2023/09/15 00:48:39;;;;;;;4.22;3.35;;;;;;;19.38;62.39;99586.25;5154311;27;20039;-80
2023/09/15 00:51:07;;;;;;;3.67;3.28;;;;;;;18.54;62.17;99456.66;5154998;27;20121;-80
2023/09/15 00:53:36;;;;;;;5.25;3.58;;;;;;;19.27;62.19;99586.34;5155022;27;20055;-80
2023/09/15 00:56:05;;;;;;;4.97;3.72;;;;;;;18.55;62.51;99463.72;5154085;27;20058;-80
2023/09/15 00:58:32;;;;;;;5.10;3.80;;;;;;;19.28;62.14;99596.13;5154625;27;20227;-80
2023/09/15 01:00:59;;;;;;;4.03;3.30;;;;;;;19.26;62.52;99581.97;5153129;27;20050;-80
2023/09/15 01:03:30;;;;;;;6.28;3.80;;;;;;;19.24;62.43;99589.31;5152997;27;20047;-80
2023/09/15 01:05:58;;;;;;;3.80;3.22;;;;;;;19.14;62.58;99589.25;5153500;27;20054;-80
2023/09/15 01:08:25;;;;;;;4.60;3.85;;;;;;;19.16;62.99;99594.50;5153480;27;20047;-80
2023/09/15 01:10:51;;;;;;;4.55;3.47;;;;;;;19.12;62.74;99588.53;5154236;27;20039;-80
2023/09/15 01:13:18;;;;;;;4.22;3.53;;;;;;;19.00;62.47;99591.44;5154278;27;20039;-81
2023/09/15 01:15:52;;;;;;;3.85;3.20;;;;;;;19.02;63.35;99594.84;5154729;27;20039;-80
2023/09/15 01:18:24;;;;;;;6.40;3.92;;;;;;;19.01;62.71;99595.81;5155379;27;20059;-80
2023/09/15 01:21:24;;;;;;;5.35;3.83;;;;;;;19.02;62.84;99593.00;5154920;27;20035;-80
2023/09/15 01:24:14;;;;;;;5.88;3.90;;;;;;;19.02;62.95;99595.69;5151261;27;20057;-80
2023/09/15 01:27:08;;;;;;;5.65;4.10;;;;;;;19.01;62.35;99601.19;5153925;27;20039;-80
2023/09/15 01:29:40;;;;;;;4.55;3.70;;;;;;;18.36;62.92;99511.00;5155083;27;20069;-80
2023/09/15 01:32:10;;;;;;;4.35;3.53;;;;;;;18.87;62.79;99602.38;5160058;27;20043;-81
2023/09/15 01:34:37;;;;;;;4.80;3.42;;;;;;;18.55;62.71;99546.06;5159367;27;20045;-80
2023/09/15 01:37:04;;;;;;;4.53;3.65;;;;;;;18.86;62.74;99603.38;5159361;27;20035;-80
2023/09/15 01:39:36;;;;;;;4.45;3.75;;;;;;;18.66;62.46;99610.44;5160756;27;20046;-80
2023/09/15 01:42:02;;;;;;;5.53;4.38;;;;;;;18.73;63.34;99600.88;5161420;27;20110;-81
2023/09/15 01:44:29;;;;;;;6.18;3.90;;;;;;;17.95;62.99;99483.16;5161966;27;20054;-80
2023/09/15 01:46:57;;;;;;;5.50;3.53;;;;;;;18.64;63.84;99611.53;5160135;27;20050;-80
2023/09/15 01:49:26;;;;;;;4.75;3.78;;;;;;;18.55;63.83;99613.16;5140241;27;20047;-79
2023/09/15 01:51:54;;;;;;;4.93;3.97;;;;;;;15.41;62.77;99087.28;5156505;27;20042;-80
2023/09/15 01:54:22;;;;;;;5.88;4.18;;;;;;;18.51;63.15;99611.69;5153553;27;20041;-80
2023/09/15 01:56:49;;;;;;;4.32;3.85;;;;;;;18.17;63.69;99547.44;5152585;27;20079;-79
2023/09/15 01:59:16;;;;;;;5.45;4.32;;;;;;;18.24;64.09;99575.44;5155610;27;20114;-81
2023/09/15 02:01:42;;;;;;;3.97;3.47;;;;;;;18.52;64.07;99608.06;5160712;27;20050;-81
2023/09/15 02:04:10;;;;;;;4.95;3.72;;;;;;;18.25;63.71;99557.53;5158991;27;20051;-80
2023/09/15 02:06:37;;;;;;;5.03;4.00;;;;;;;18.57;63.91;99597.78;5152228;27;20039;-80
2023/09/15 02:09:05;;;;;;;5.53;4.43;;;;;;;18.51;63.89;99604.47;5152337;27;20063;-80
2023/09/15 02:11:32;;;;;;;6.32;4.28;;;;;;;18.53;64.26;99599.88;5152437;27;20126;-80
2023/09/15 02:18:13;;;;;;;6.22;4.53;;;;;;;18.52;63.78;99608.91;5167554;27;20499;-79
2023/09/15 02:20:40;;;;;;;5.88;5.03;;;;;;;18.41;64.03;99579.41;5168452;27;20073;-79
2023/09/15 02:23:07;;;;;;;5.25;4.75;;;;;;;18.47;64.37;99607.56;5168315;27;20038;-79
2023/09/15 02:25:35;;;;;;;5.60;4.55;;;;;;;18.40;63.87;99607.22;5168697;27;20217;-79
2023/09/15 02:28:03;;;;;;;5.45;4.55;;;;;;;18.45;64.06;99617.56;5150722;27;20088;-79
2023/09/15 02:30:29;;;;;;;6.72;4.72;;;;;;;18.45;63.78;99610.38;5151053;27;20118;-79
2023/09/15 02:32:56;;;;;;;7.28;5.30;;;;;;;18.44;64.15;99611.34;5151558;27;20221;-80
2023/09/15 02:35:25;;;;;;;6.65;5.85;;;;;;;18.44;63.52;99610.50;5157321;27;20066;-80
2023/09/15 02:37:51;;;;;;;8.13;5.40;;;;;;;18.06;63.19;99533.22;5157368;27;20035;-81
2023/09/15 02:40:18;;;;;;;5.53;4.68;;;;;;;18.52;63.24;99608.06;5157326;27;20039;-80
2023/09/15 02:42:45;;;;;;;7.18;5.10;;;;;;;18.47;63.42;99603.03;5154663;27;20095;-80
2023/09/15 02:45:12;;;;;;;8.00;5.75;;;;;;;18.40;63.54;99609.03;5149167;27;20039;-80
2023/09/15 02:47:38;;;;;;;5.88;5.28;;;;;;;18.38;63.90;99608.31;5166432;27;20056;-80
2023/09/15 02:50:07;;;;;;;5.93;5.32;;;;;;;18.39;64.02;99607.34;5147807;27;20046;-80
2023/09/15 02:52:34;;;;;;;6.32;5.30;;;;;;;18.37;63.79;99610.16;5165664;27;20039;-80
2023/09/15 02:55:01;;;;;;;7.38;5.38;;;;;;;18.37;64.05;99609.31;5147780;27;20050;-80
2023/09/15 02:57:30;;;;;;;6.55;5.43;;;;;;;18.21;63.45;99593.63;5165759;27;20050;-80
2023/09/15 02:59:57;;;;;;;5.78;5.20;;;;;;;18.30;63.83;99608.09;5147779;27;20275;-80
2023/09/15 03:02:24;;;;;;;6.20;5.15;;;;;;;18.29;64.09;99607.25;5147289;27;20180;-80
2023/09/15 03:04:51;;;;;;;7.82;5.53;;;;;;;18.25;64.38;99600.44;5165518;27;20047;-80
2023/09/15 03:07:17;;;;;;;6.75;5.78;;;;;;;18.25;63.97;99601.28;5164924;27;20043;-80
2023/09/15 03:09:45;;;;;;;6.65;5.82;;;;;;;18.24;64.04;99604.97;5164939;27;20092;-80
2023/09/15 03:12:12;;;;;;;5.55;4.97;;;;;;;18.21;64.13;99607.03;5147114;27;20307;-80
2023/09/15 03:14:39;;;;;;;6.75;5.82;;;;;;;18.23;64.01;99595.22;5165641;27;20053;-80
2023/09/15 03:17:07;;;;;;;6.32;5.03;;;;;;;18.18;64.01;99592.06;5143835;28;20047;-80
2023/09/15 03:19:35;;;;;;;6.95;5.30;;;;;;;18.19;63.50;99595.59;5145586;28;20119;-80
2023/09/15 03:22:02;;;;;;;6.45;5.85;;;;;;;18.21;63.61;99594.47;5144687;28;20039;-80
2023/09/15 03:24:28;;;;;;;6.68;5.13;;;;;;;18.10;63.50;99597.19;5145538;28;20102;-81
2023/09/15 03:26:57;;;;;;;10.98;6.80;;;;;;;18.10;64.11;99589.16;5144099;28;20085;-80
2023/09/15 03:29:23;;;;;;;6.40;4.55;;;;;;;18.10;63.70;99593.66;5133053;27;20039;-81
2023/09/15 03:31:50;;;;;;;9.57;5.30;;;;;;;18.04;64.02;99592.34;5130980;28;20292;-80
2023/09/15 03:34:17;;;;;;;7.38;5.40;;;;;;;18.01;64.44;99594.41;5130073;28;20074;-81
2023/09/15 03:36:43;;;;;;;6.72;4.97;;;;;;;18.06;63.81;99594.91;5130183;28;20040;-81
2023/09/15 03:39:10;;;;;;;7.47;5.22;;;;;;;18.02;63.79;99588.06;5130790;28;20097;-80
2023/09/15 03:41:37;;;;;;;6.03;5.35;;;;;;;18.00;63.98;99590.03;5130428;28;20054;-80
2023/09/15 03:44:06;;;;;;;6.63;5.28;;;;;;;17.95;64.44;99590.41;5130423;28;20062;-80
2023/09/15 03:46:33;;;;;;;9.20;7.43;;;;;;;17.92;64.35;99594.19;5129689;28;20042;-81
2023/09/15 03:49:00;;;;;;;7.05;5.70;;;;;;;17.89;64.09;99593.59;5128605;28;20039;-77
2023/09/15 03:51:29;;;;;;;7.13;5.65;;;;;;;17.67;64.64;99593.63;5128923;28;20039;-77
2023/09/15 03:53:56;;;;;;;6.78;5.70;;;;;;;17.76;64.91;99592.88;5129102;28;20040;-77
2023/09/15 03:56:23;;;;;;;6.18;5.32;;;;;;;17.04;64.93;99506.66;5127551;28;20043;-77
2023/09/15 03:58:51;;;;;;;7.25;5.22;;;;;;;17.72;64.61;99588.75;5128716;27;20196;-77
2023/09/15 04:01:23;;;;;;;6.63;5.15;;;;;;;17.73;65.02;99577.06;5129154;28;20077;-80
2023/09/15 04:03:50;;;;;;;7.25;5.70;;;;;;;17.68;65.09;99589.97;5128807;28;20039;-80
2023/09/15 04:06:17;;;;;;;8.15;5.95;;;;;;;16.89;64.48;99450.69;5128600;28;20328;-80
2023/09/15 04:08:45;;;;;;;5.93;5.30;;;;;;;17.66;64.93;99590.09;5129507;28;20039;-80
2023/09/15 04:11:12;;;;;;;8.65;5.70;;;;;;;17.65;65.07;99580.34;5129616;28;20118;-80
2023/09/15 04:13:39;;;;;;;7.30;5.97;;;;;;;17.66;64.60;99591.94;5128882;28;20039;-80
2023/09/15 04:16:06;;;;;;;7.85;5.95;;;;;;;17.62;65.19;99585.97;5132680;27;20055;-80
2023/09/15 04:18:34;;;;;;;7.57;5.50;;;;;;;17.59;65.02;99586.19;5150481;27;20054;-81
2023/09/15 04:21:01;;;;;;;6.30;5.70;;;;;;;17.59;65.41;99592.38;5133352;27;20041;-82
2023/09/15 04:23:28;;;;;;;6.60;5.70;;;;;;;17.55;65.29;99585.56;5150303;27;20038;-81
2023/09/15 04:25:55;;;;;;;8.18;5.82;;;;;;;17.54;65.44;99586.53;5151054;27;20058;-81
2023/09/15 04:28:22;;;;;;;8.00;6.10;;;;;;;17.54;65.30;99591.91;5152335;27;20057;-80
2023/09/15 04:30:49;;;;;;;6.75;5.82;;;;;;;17.52;65.78;99593.00;5157437;27;20043;-80
2023/09/15 04:33:15;;;;;;;9.32;5.45;;;;;;;17.51;65.64;99596.66;5160829;27;20069;-82
2023/09/15 04:35:44;;;;;;;6.60;5.32;;;;;;;17.49;65.60;99594.09;5154841;27;20047;-81
2023/09/15 04:38:10;;;;;;;6.25;4.90;;;;;;;17.21;65.44;99560.63;5150371;27;20039;-81
2023/09/15 04:40:37;;;;;;;6.78;5.40;;;;;;;17.49;65.67;99604.81;5131419;27;20065;-81
2023/09/15 04:43:04;;;;;;;6.18;4.95;;;;;;;17.42;65.87;99610.78;5131988;27;20039;-81
2023/09/15 04:45:31;;;;;;;7.95;5.63;;;;;;;17.44;65.59;99608.84;5132187;27;20187;-81
2023/09/15 04:47:58;;;;;;;7.65;5.40;;;;;;;17.43;65.68;99607.13;5149020;27;20047;-81
2023/09/15 04:50:25;;;;;;;8.88;6.72;;;;;;;17.40;65.75;99604.69;5149619;27;20043;-81
2023/09/15 04:52:53;;;;;;;9.60;6.45;;;;;;;17.39;65.50;99608.34;5132079;27;20031;-81
2023/09/15 04:55:20;;;;;;;7.60;6.32;;;;;;;16.89;65.62;99519.44;5131577;27;20043;-80
2023/09/15 04:57:47;;;;;;;7.90;5.88;;;;;;;16.10;65.82;99387.38;5150231;27;20042;-80
2023/09/15 05:00:21;;;;;;;6.40;5.65;;;;;;;17.31;65.74;99604.47;5150325;27;20084;-81
2023/09/15 05:02:47;;;;;;;8.00;5.88;;;;;;;17.33;65.71;99600.81;5150154;27;20054;-80
2023/09/15 05:05:14;;;;;;;9.90;6.35;;;;;;;17.31;66.05;99604.47;5150033;27;20098;-81
2023/09/15 05:07:41;;;;;;;7.13;5.85;;;;;;;17.30;66.41;99601.91;5149955;27;20055;-80
2023/09/15 05:10:11;;;;;;;9.20;6.57;;;;;;;17.29;66.03;99597.50;5132585;27;20070;-81
2023/09/15 05:12:37;;;;;;;7.68;5.80;;;;;;;17.27;66.40;99600.31;5131339;27;20035;-80
2023/09/15 05:15:06;;;;;;;9.27;5.55;;;;;;;17.35;65.92;99598.84;5131577;27;20221;-80
2023/09/15 05:17:33;;;;;;;6.47;5.45;;;;;;;17.37;66.29;99596.91;5127588;28;20052;-80
2023/09/15 05:20:00;;;;;;;6.55;5.80;;;;;;;17.37;66.17;99602.25;5128212;28;20048;-81
2023/09/15 05:22:27;;;;;;;7.05;5.90;;;;;;;17.00;66.09;99541.72;5129274;28;20035;-81
2023/09/15 05:24:55;;;;;;;7.20;6.18;;;;;;;17.38;65.39;99599.47;5128207;28;20035;-81
2023/09/15 05:27:23;;;;;;;7.90;6.47;;;;;;;17.40;65.80;99605.56;5128082;28;20073;-79
2023/09/15 05:29:50;;;;;;;7.40;6.35;;;;;;;17.43;65.78;99609.81;5129088;28;20043;-81
2023/09/15 05:32:17;;;;;;;7.75;5.82;;;;;;;17.53;65.64;99611.63;5128511;28;20042;-81
2023/09/15 05:34:44;;;;;;;7.80;5.70;;;;;;;17.54;65.40;99602.63;5128548;28;20074;-80
2023/09/15 05:37:12;;;;;;;6.25;5.63;;;;;;;16.80;65.28;99472.84;5130003;28;20043;-80
2023/09/15 05:39:38;;;;;;;6.40;5.72;;;;;;;17.65;65.39;99609.84;5130505;28;20053;-80
2023/09/15 05:42:05;;;;;;;7.65;5.20;;;;;;;16.89;65.16;99480.13;5130628;28;20043;-80
2023/09/15 05:44:34;;;;;;;5.82;5.20;;;;;;;17.17;65.25;99521.63;5129510;28;20039;-79
2023/09/15 05:47:00;;;;;;;6.28;5.65;;;;;;;17.68;64.95;99608.75;5129274;28;20044;-79
2023/09/15 05:49:27;;;;;;;6.18;5.55;;;;;;;17.73;64.49;99611.91;5129570;28;20039;-80
2023/09/15 05:51:54;;;;;;;7.35;5.40;;;;;;;17.77;64.55;99610.69;5128432;28;20291;-80
2023/09/15 05:54:20;;;;;;;6.95;5.07;;;;;;;17.81;64.54;99604.94;5129113;28;20092;-81
2023/09/15 05:56:47;;;;;;;6.93;5.43;;;;;;;17.85;64.02;99614.44;5129671;28;20050;-81
2023/09/15 05:59:14;;;;;;;7.85;5.55;;;;;;;17.80;64.41;99616.66;5129597;28;20035;-80
2023/09/15 06:01:46;;;;;;;5.93;5.20;;;;;;;17.80;64.10;99619.31;5128587;28;20043;-80
2023/09/15 06:04:13;;;;;;;6.93;5.13;;;;;;;17.78;63.86;99607.03;5126584;28;20043;-81
2023/09/15 06:06:40;;;;;;;5.43;4.47;;;;;;;17.87;63.60;99619.69;5128510;28;20039;-81
2023/09/15 06:09:07;;;;;;;8.57;5.38;;;;;;;17.92;63.94;99618.31;5128265;28;20035;-80
2023/09/15 06:11:34;;;;;;;6.95;5.10;;;;;;;17.91;63.15;99623.81;5128080;28;20048;-79
2023/09/15 06:14:00;;;;;;;6.45;5.30;;;;;;;17.79;63.14;99580.09;5127897;28;20081;-79
2023/09/15 06:16:27;;;;;;;6.35;4.80;;;;;;;17.97;62.80;99612.59;5134198;28;20047;-80
2023/09/15 06:18:55;;;;;;;9.93;5.45;;;;;;;17.99;62.82;99617.81;5129418;28;20043;-79
2023/09/15 06:21:22;;;;;;;6.20;4.88;;;;;;;17.73;63.04;99560.97;5131573;28;20046;-79
2023/09/15 06:23:48;;;;;;;7.72;6.28;;;;;;;18.11;63.14;99614.16;5148720;28;20295;-80
2023/09/15 06:26:15;;;;;;;7.75;5.95;;;;;;;18.17;62.01;99625.22;5149487;28;20059;-80
2023/09/15 06:28:42;;;;;;;8.75;5.63;;;;;;;18.19;62.00;99617.91;5147944;28;20031;-79
2023/09/15 06:31:09;;;;;;;6.50;4.63;;;;;;;18.24;62.70;99621.06;5149548;28;20050;-81
2023/09/15 06:33:35;;;;;;;5.45;4.57;;;;;;;18.30;62.45;99619.69;5132463;28;20050;-80
2023/09/15 06:36:05;;;;;;;6.63;5.32;;;;;;;18.36;62.11;99621.00;5131332;28;20039;-79
2023/09/15 06:38:32;;;;;;;5.93;4.43;;;;;;;17.71;61.75;99522.72;5149463;28;20043;-81
2023/09/15 06:40:59;;;;;;;6.07;5.47;;;;;;;18.45;63.24;99628.28;5131335;28;20061;-80
2023/09/15 06:43:26;;;;;;;6.60;4.88;;;;;;;18.49;60.98;99622.53;5131730;28;20046;-81
2023/09/15 06:45:52;;;;;;;6.63;5.18;;;;;;;18.49;61.43;99625.22;5149422;28;20199;-81
2023/09/15 06:48:22;;;;;;;7.55;5.60;;;;;;;18.51;61.45;99623.28;5130842;28;20043;-80
2023/09/15 06:50:50;;;;;;;6.70;5.30;;;;;;;18.64;61.70;99627.63;5148382;28;20088;-82
2023/09/15 06:53:19;;;;;;;9.57;5.65;;;;;;;18.64;59.63;99622.28;5149424;28;20203;-80
2023/09/15 06:55:46;;;;;;;6.75;4.90;;;;;;;18.67;60.51;99611.28;5131633;28;20054;-80
2023/09/15 06:58:12;;;;;;;7.60;5.95;;;;;;;18.69;59.13;99623.59;5131549;28;20039;-81
2023/09/15 07:00:39;;;;;;;5.88;5.03;;;;;;;18.32;58.58;99549.81;5130745;28;20035;-80
2023/09/15 07:03:06;;;;;;;8.15;5.60;;;;;;;18.76;58.75;99614.03;5148258;27;20047;-79
2023/09/15 07:05:33;;;;;;;6.78;4.68;;;;;;;18.88;59.54;99610.31;5134370;27;20053;-79
2023/09/15 07:07:59;;;;;;;8.32;4.70;;;;;;;19.04;59.31;99615.22;5150980;27;20042;-80
2023/09/15 07:10:28;;;;;;;5.28;4.68;;;;;;;19.17;59.60;99598.88;5134814;27;20104;-80
2023/09/15 07:12:54;;;;;;;7.43;4.97;;;;;;;18.69;59.67;99520.72;5155052;27;20111;-80
2023/09/15 07:15:21;;;;;;;6.82;5.00;;;;;;;19.21;59.78;99595.78;5155049;27;20068;-80
2023/09/15 07:17:48;;;;;;;8.95;5.38;;;;;;;19.41;58.66;99595.91;5133341;28;20052;-80
2023/09/15 07:20:15;;;;;;;7.47;5.63;;;;;;;19.44;59.17;99596.50;5132901;28;20039;-81
2023/09/15 07:22:41;;;;;;;5.57;4.80;;;;;;;19.56;58.77;99599.94;5131970;28;20044;-79
2023/09/15 07:25:08;;;;;;;7.22;5.05;;;;;;;19.61;58.17;99597.69;5130890;28;20048;-79
2023/09/15 07:27:36;;;;;;;9.63;5.47;;;;;;;19.62;57.49;99595.84;5132102;28;20035;-80
2023/09/15 07:30:03;;;;;;;6.68;5.10;;;;;;;19.23;58.23;99523.97;5132420;28;20118;-79
2023/09/15 07:32:30;;;;;;;7.60;4.88;;;;;;;19.75;58.10;99586.56;5131974;28;20092;-80
2023/09/15 07:34:57;;;;;;;6.25;5.45;;;;;;;19.57;57.84;99587.34;5131247;28;20059;-80
2023/09/15 07:37:24;;;;;;;5.60;4.90;;;;;;;19.13;58.04;99524.91;5131734;28;20039;-80
2023/09/15 07:39:50;;;;;;;6.45;5.72;;;;;;;18.99;57.79;99467.03;5130643;28;20245;-81
2023/09/15 07:42:17;;;;;;;6.70;5.20;;;;;;;19.91;57.24;99596.81;5130807;28;20040;-79
2023/09/15 07:44:45;;;;;;;8.25;5.47;;;;;;;20.10;57.02;99588.78;5132432;28;20050;-80
2023/09/15 07:47:14;;;;;;;7.65;5.85;;;;;;;20.10;55.93;99583.41;5133406;28;20070;-80
2023/09/15 07:49:41;;;;;;;7.80;5.63;;;;;;;20.22;56.63;99583.28;5132795;28;20039;-80
2023/09/15 07:52:07;;;;;;;8.70;5.32;;;;;;;20.23;57.00;99582.31;5134047;28;20043;-80
2023/09/15 07:54:35;;;;;;;7.03;5.60;;;;;;;20.15;57.35;99585.69;5133269;28;20043;-79
2023/09/15 07:57:03;;;;;;;8.90;6.47;;;;;;;20.37;55.89;99577.38;5133388;28;20061;-80
2023/09/15 07:59:30;;;;;;;8.98;6.72;;;;;;;20.38;54.36;99579.06;5134250;28;20055;-80
2023/09/15 08:01:58;;;;;;;7.55;5.93;;;;;;;20.25;53.75;99583.88;5136775;28;20119;-80
2023/09/15 08:04:24;;;;;;;7.70;5.70;;;;;;;20.21;54.19;99574.34;5137868;28;20039;-80
2023/09/15 08:06:52;;;;;;;6.70;5.15;;;;;;;20.27;55.81;99584.59;5137164;28;20042;-80
2023/09/15 08:09:19;;;;;;;8.45;5.05;;;;;;;20.42;55.65;99579.63;5136152;28;20040;-80
2023/09/15 08:11:45;;;;;;;7.28;5.88;;;;;;;20.61;55.21;99598.47;5132561;28;20055;-80
2023/09/15 08:14:12;;;;;;;8.75;6.30;;;;;;;20.61;54.37;99582.31;5131648;28;20061;-81
2023/09/15 08:16:39;;;;;;;7.15;6.10;;;;;;;20.11;55.14;99519.69;5140184;27;20055;-80
2023/09/15 08:19:08;;;;;;;7.63;5.75;;;;;;;19.92;54.50;99471.25;5152956;27;20345;-80
2023/09/15 08:21:35;;;;;;;8.55;6.00;;;;;;;20.74;53.14;99577.50;5153353;27;20045;-80
2023/09/15 08:24:01;;;;;;;9.02;5.85;;;;;;;20.82;53.04;99577.63;5134499;27;20198;-80
2023/09/15 08:26:27;;;;;;;5.57;4.68;;;;;;;20.33;53.72;99513.19;5135360;27;20110;-80
2023/09/15 08:28:54;;;;;;;9.18;5.45;;;;;;;20.80;52.06;99576.91;5134657;27;20035;-80
2023/09/15 08:31:21;;;;;;;6.75;5.65;;;;;;;19.91;53.37;99427.38;5152527;27;20055;-81
2023/09/15 08:33:48;;;;;;;8.23;5.55;;;;;;;21.01;52.62;99574.03;5152741;27;20092;-80
2023/09/15 08:36:16;;;;;;;9.65;5.78;;;;;;;21.23;52.01;99578.25;5152664;27;20055;-80
2023/09/15 08:38:42;;;;;;;9.07;6.32;;;;;;;21.30;51.51;99573.13;5153123;27;20099;-80
2023/09/15 08:41:18;;;;;;;9.50;5.53;;;;;;;21.32;51.95;99569.28;5153272;27;20043;-80
2023/09/15 08:43:45;;;;;;;6.57;5.30;;;;;;;21.45;51.12;99567.09;5118163;27;20264;-80
2023/09/15 08:46:13;;;;;;;9.23;5.15;;;;;;;21.62;51.00;99572.69;5133974;27;20043;-81
2023/09/15 08:48:46;;;;;;;7.00;5.93;;;;;;;21.65;50.71;99573.25;5150976;27;20035;-80
2023/09/15 08:51:13;;;;;;;7.25;5.20;;;;;;;21.35;50.16;99514.22;5132496;27;20051;-81
2023/09/15 08:53:43;;;;;;;7.03;5.13;;;;;;;21.06;50.75;99447.00;5133197;27;20031;-80
2023/09/15 08:56:10;;;;;;;11.85;5.78;;;;;;;21.83;50.11;99561.69;5150468;27;20088;-80
2023/09/15 08:58:38;;;;;;;8.02;5.47;;;;;;;22.05;50.07;99561.25;5151120;27;20257;-80
2023/09/15 09:01:07;;;;;;;7.78;5.93;;;;;;;21.50;49.66;99464.19;5150430;27;20074;-80
2023/09/15 09:03:36;;;;;;;9.18;5.90;;;;;;;21.73;49.81;99505.91;5149548;27;20039;-80
2023/09/15 09:06:04;;;;;;;9.00;5.82;;;;;;;22.15;49.55;99550.38;5148756;27;20095;-81
2023/09/15 09:08:32;;;;;;;8.30;5.82;;;;;;;22.19;49.23;99549.09;5149235;27;20039;-80
2023/09/15 09:11:00;;;;;;;7.40;5.45;;;;;;;22.36;49.33;99543.69;5131748;27;20054;-80
2023/09/15 09:13:27;;;;;;;7.82;5.80;;;;;;;22.36;49.24;99546.38;5131146;27;20096;-81
2023/09/15 09:15:54;;;;;;;9.45;5.85;;;;;;;22.19;48.69;99555.34;5132121;27;20035;-81
2023/09/15 09:18:21;;;;;;;6.43;4.97;;;;;;;22.27;49.42;99541.06;5149323;27;20241;-81
2023/09/15 09:20:50;;;;;;;5.88;5.05;;;;;;;22.50;49.06;99539.63;5149051;27;20050;-81
2023/09/15 09:23:18;;;;;;;8.40;5.40;;;;;;;22.24;49.08;99484.69;5148567;27;20047;-80
2023/09/15 09:25:46;;;;;;;6.13;4.70;;;;;;;22.73;48.77;99537.28;5129391;27;20102;-81
2023/09/15 09:28:14;;;;;;;6.32;5.13;;;;;;;21.88;48.21;99379.47;5148399;27;20050;-81
2023/09/15 09:30:41;;;;;;;7.00;5.30;;;;;;;22.79;48.12;99536.66;5149031;27;20050;-82
2023/09/15 09:33:10;;;;;;;8.00;5.03;;;;;;;22.57;47.54;99478.59;5147965;27;20062;-81
2023/09/15 09:35:36;;;;;;;7.03;5.40;;;;;;;22.79;47.12;99535.81;5130452;27;20035;-81
2023/09/15 09:38:04;;;;;;;6.75;4.55;;;;;;;22.87;48.05;99535.88;5147848;27;20107;-82
2023/09/15 09:40:33;;;;;;;7.93;4.88;;;;;;;22.85;47.35;99533.31;5148250;27;20047;-81
2023/09/15 09:43:00;;;;;;;7.80;4.70;;;;;;;22.52;46.56;99451.19;5129360;27;20299;-81
2023/09/15 09:45:30;;;;;;;5.93;4.30;;;;;;;23.13;47.19;99530.44;5147426;27;20084;-81
2023/09/15 09:47:58;;;;;;;7.70;5.45;;;;;;;22.94;45.86;99531.53;5147616;27;20051;-82
2023/09/15 09:50:26;;;;;;;8.57;5.20;;;;;;;22.90;46.71;99536.41;5147747;27;20284;-83
2023/09/15 09:52:53;;;;;;;6.97;5.38;;;;;;;22.75;46.29;99478.53;5147626;27;20195;-81
2023/09/15 09:55:20;;;;;;;8.65;5.38;;;;;;;22.80;46.67;99467.25;5164223;27;20043;-82
2023/09/15 09:57:47;;;;;;;6.78;5.38;;;;;;;22.98;46.28;99536.44;5149096;27;20055;-82
2023/09/15 10:00:18;;;;;;;6.13;4.45;;;;;;;23.01;46.40;99528.03;5155013;27;20038;-79
2023/09/15 10:02:47;;;;;;;7.25;4.68;;;;;;;23.07;46.01;99531.94;5155291;27;20054;-80
2023/09/15 10:05:15;;;;;;;8.30;4.78;;;;;;;22.85;45.45;99529.78;5155717;27;20042;-79
2023/09/15 10:07:41;;;;;;;8.05;5.45;;;;;;;22.58;46.34;99493.78;5137945;28;20050;-80
2023/09/15 10:10:09;;;;;;;9.60;5.78;;;;;;;22.91;44.76;99529.97;5156023;27;20050;-80
2023/09/15 10:12:36;;;;;;;8.80;5.57;;;;;;;22.97;44.28;99539.31;5156237;27;20054;-81
2023/09/15 10:15:04;;;;;;;6.13;5.20;;;;;;;22.97;44.02;99533.91;5138118;28;20047;-81
2023/09/15 10:17:34;;;;;;;6.53;4.50;;;;;;;22.46;45.20;99445.56;5137530;28;20035;-81
2023/09/15 10:20:02;;;;;;;6.32;4.97;;;;;;;23.01;45.84;99519.91;5155666;28;20303;-81
2023/09/15 10:22:30;;;;;;;6.10;5.00;;;;;;;23.08;46.48;99530.94;5152638;28;20039;-80
2023/09/15 10:24:58;;;;;;;6.22;4.47;;;;;;;23.15;45.69;99523.03;5133033;28;20046;-80
2023/09/15 10:27:25;;;;;;;5.30;4.78;;;;;;;23.18;44.59;99522.72;5150196;28;20077;-81
2023/09/15 10:29:53;;;;;;;8.90;4.75;;;;;;;23.30;44.57;99522.28;5150677;28;20035;-80
2023/09/15 10:32:20;;;;;;;6.55;5.47;;;;;;;23.18;44.01;99514.59;5132762;28;20303;-80
2023/09/15 10:34:49;;;;;;;5.93;4.97;;;;;;;23.17;44.66;99515.59;5133180;28;20084;-80
2023/09/15 10:37:17;;;;;;;5.38;4.38;;;;;;;23.26;44.59;99511.94;5132617;28;20088;-80
2023/09/15 10:39:44;;;;;;;6.25;4.90;;;;;;;23.27;45.11;99500.13;5154746;27;20035;-80
2023/09/15 10:42:13;;;;;;;5.00;4.40;;;;;;;23.32;46.14;99509.47;5136973;27;20379;-80
2023/09/15 10:44:40;;;;;;;5.82;5.20;;;;;;;23.51;45.42;99502.09;5154673;27;20039;-81
2023/09/15 10:47:16;;;;;;;6.07;5.47;;;;;;;23.62;44.51;99490.97;5154891;27;20077;-80
2023/09/15 10:49:51;;;;;;;7.22;5.15;;;;;;;23.60;44.53;99501.97;5136642;27;20039;-80
2023/09/15 10:52:31;;;;;;;7.05;5.57;;;;;;;23.62;44.46;99488.25;5153938;27;20165;-81
2023/09/15 10:54:58;;;;;;;5.22;4.55;;;;;;;23.31;44.32;99456.38;5154995;27;20050;-80
2023/09/15 10:57:24;;;;;;;8.75;4.32;;;;;;;23.58;42.98;99490.44;5136285;27;20035;-80
2023/09/15 10:59:53;;;;;;;5.45;4.95;;;;;;;23.60;43.12;99493.00;5154305;27;20043;-80
2023/09/15 11:02:21;;;;;;;7.00;4.35;;;;;;;22.97;42.33;99378.00;5154875;27;20043;-80
2023/09/15 11:04:52;;;;;;;6.78;5.65;;;;;;;22.18;43.84;99231.56;5152122;27;20035;-84
2023/09/15 11:07:21;;;;;;;8.00;6.32;;;;;;;23.82;42.92;99486.13;5150890;27;20035;-83
2023/09/15 11:09:47;;;;;;;12.00;8.35;;;;;;;23.84;41.65;99484.94;5150796;27;20051;-84
2023/09/15 11:12:14;;;;;;;10.80;8.75;;;;;;;22.09;42.87;99198.31;5151053;27;20042;-82
2023/09/15 11:14:41;;;;;;;9.52;7.13;;;;;;;23.84;43.53;99484.94;5132841;27;20054;-83
2023/09/15 11:17:08;;;;;;;6.88;5.65;;;;;;;23.79;41.10;99481.03;5129884;28;20043;-79
2023/09/15 11:19:37;;;;;;;9.98;6.82;;;;;;;23.53;41.75;99479.28;5129744;28;20044;-81
2023/09/15 11:22:04;;;;;;;8.55;6.32;;;;;;;23.21;43.97;99425.06;5129946;28;20049;-81
2023/09/15 11:24:33;;;;;;;6.35;5.43;;;;;;;23.40;42.72;99414.00;5130341;28;20047;-82
2023/09/15 11:27:02;;;;;;;12.50;8.77;;;;;;;23.77;43.19;99481.19;5130010;28;20051;-83
2023/09/15 11:29:31;;;;;;;9.43;7.82;;;;;;;23.82;42.86;99472.59;5131181;28;20032;-81
2023/09/15 11:31:59;;;;;;;8.25;7.05;;;;;;;23.87;42.83;99467.53;5129883;28;20054;-81
2023/09/15 11:34:27;;;;;;;6.78;5.18;;;;;;;23.96;42.55;99463.81;5129980;28;20291;-81
2023/09/15 11:36:59;;;;;;;8.77;5.53;;;;;;;24.11;42.86;99461.31;5131571;28;20036;-82
2023/09/15 11:39:26;;;;;;;7.22;4.47;;;;;;;24.11;42.12;99459.47;5132048;28;20039;-83
2023/09/15 11:41:54;;;;;;;6.60;4.65;;;;;;;24.23;42.74;99457.25;5131687;28;20084;-79